Warning: Javascript must be enabled to use all the features on this page!


Page Loading - Please Wait...

Click to hideNews Bulletins

Peak Streamflow for the Nation

USGS 11530000 TRINITY R A HOOPA CA

Humboldt County, California
Hydrologic Unit Code 18010211
Latitude  41°03'00", Longitude 123°40'21" NAD27
Drainage area 2,853  square miles
Gage datum 274.82 feet above NGVD29
Output formats
Table
Graph
Tab-separated file
peakfq (watstore) format
Reselect output format
Water
Year
Date Gage
Height
(feet)
Stream-
flow
(cfs)
1912 1912-01-25 23.00 63,100
1913 1912-11-06 13.20 17,800
1914 1913-12-31 28.10 89,000
1917 1917-02-25 24.60 71,200
1918 1917-11-30 14.00 20,900
1932 1932-03-19 16.006 27,400
1933 1933-03-28 14.58 22,500
1934 1934-03-28 13.96 20,600
1935 1935-04-08 16.80 30,200
1936 1936-01-15 24.60 73,100
1937 1937-04-14 18.25 39,700
1938 1937-12-11 28.70 105,000
1939 1938-12-03 16.25 31,800
1940 1940-02-28 31.20 124,000
1941 1941-03-01 24.85 79,000
1942 1942-02-06 23.25 69,000
1943 1943-01-21 22.45 64,100
1944 1944-02-03 11.45 13,200
1945 1945-02-03 16.90 34,800
1946 1945-12-29 23.92 74,500
1947 1947-02-12 16.70 34,000
1948 1948-01-08 23.70 73,000
1949 1949-03-18 20.65 54,100
1950 1950-03-19 16.70 34,000
1951 1951-02-05 23.63 72,500
1952 1952-02-02 25.92 88,400
1953 1953-01-18 27.28 98,200
1954 1954-01-17 21.73 60,600
1955 1954-12-31 13.92 22,100
1956 1955-12-22 36.90 190,000
1957 1957-02-25 22.21 61,900
1958 1958-02-19 29.15 125,000
1959 1959-01-12 23.80 77,800
1960 1960-02-08 24.78 85,7006
1961 1961-02-11 17.16 36,3006
1962 1962-02-14 14.42 23,8006
1963 1963-02-01 20.53 54,7006
1964 1964-01-20 21.68 62,3006
1965 1964-12-22 40.306 231,0006
1966 1966-01-05 31.33 46,5006
1967 1967-01-29 33.38 56,4006
1968 1968-02-23 32.36 51,3006
1969 1969-01-21 36.17 71,4006
1970 1970-01-24 39.97 115,0006
1971 1971-01-18 37.42 96,9006
1972 1972-03-03 37.53 97,7006
1973 1973-01-16 31.02 45,0006
1974 1974-01-16 45.98 145,0006
1975 1975-03-19 33.85 66,0006
1976 1976-02-26 26.71 32,0006
1977 1977-03-09 15.59 2,6906
1978 1978-01-17 33.33 62,2006
1979 1979-01-11 25.70 28,0006
1980 1980-01-13 33.63 63,8006
1981 1981-02-14 28.90 40,9006
1982 1981-12-20 40.46 104,0006
1983 1983-01-27 43.16 122,0006
1984 1983-12-10 28.23 42,0006
1985 1984-11-12 28.54 43,3006
1986 1986-02-18 42.43 116,0006
1987 1987-03-13 27.42 38,5006
1988 1987-12-11 28.79 44,4006
1989 1989-03-10 29.37 47,1006
1990 1990-01-08 27.70 39,7006
1991 1991-03-04 24.59 26,9006
1992 1992-02-22 21.62 16,7006
1993 1993-01-20 34.01 68,8006
1994 1994-01-24 20.50 13,3006
1995 1995-01-10 37.06 83,6006
1996 1995-12-12 29.45 47,0006
1997 1997-01-01 42.97 122,0006
1998 1998-03-23 34.75 73,9006
1999 1999-03-01 25.94 33,4006
2000 2000-02-14 29.41 47,8006
2001 2001-03-05 19.85 13,2006
2002 2002-01-02 29.10 46,5006
2003 2002-12-28 31.98 59,8006
2004 2004-02-18 35.61 78,4006
2005 2005-05-19 25.85 33,1006
2006 2005-12-31 40.68 108,0006
2007 2006-12-13 23.48 24,1006
2008 2008-01-04 26.28 34,8006
2009 2009-02-24 24.32 27,2006
2010 2010-02-27 24.91 29,5006
2011 2010-12-29 25.24 30,7006
2012 2012-03-30 27.94 41,6006
2013 2012-12-02 23.69 25,1006
2014 2014-03-10 22.92 23,4006
2015 2015-02-07 31.59 58,2006
2016 2016-01-18 35.11 81,0006
2017 2017-02-09 35.55 83,6006
2018 2018-04-07 26.87 39,8006
2019 2019-02-27 36.31 88,1006
2020 2020-01-26   25,1006
?
  Peak Gage-Height Qualification Codes.
?
  Peak Streamflow Qualification Codes.